This is the latest recevied weather packets stored in our database for station/object KJ7HSW. If no packets are shown the sender has not sent any weather packets the latest 10 day(s).
| Time | Temp. | Humidity | Pressure | Rain* | Wind** | Luminosity | Snow |
|---|---|---|---|---|---|---|---|
| 1777947954 | 21.67° C | 56% | 1008.4 hPa | 0 mm | - | 30 W/m² | - |
| 1777947651 | 21.67° C | 56% | 1008.4 hPa | 0 mm | - | 31 W/m² | - |
| 1777947348 | 21.67° C | 54% | 1008.2 hPa | 0 mm | - | 33 W/m² | - |
| 1777947045 | 22.22° C | 53% | 1008.2 hPa | 0 mm | - | 35 W/m² | - |
| 1777946744 | 22.78° C | 52% | 1008.4 hPa | 0 mm | - | 37 W/m² | - |
| 1777946442 | 22.78° C | 53% | 1008.2 hPa | 0 mm | - | 37 W/m² | - |
| 1777946139 | 23.33° C | 52% | 1008.4 hPa | 0 mm | - | 39 W/m² | - |
| 1777945835 | 23.89° C | 49% | 1008.2 hPa | 0 mm | - | 40 W/m² | - |
| 1777945532 | 23.89° C | 44% | 1008.1 hPa | 0 mm | - | 45 W/m² | - |
| 1777945230 | 24.44° C | 46% | 1008.1 hPa | 0 mm | - | 42 W/m² | - |
| 1777944926 | 25.56° C | 42% | 1008.4 hPa | 0 mm | - | 44 W/m² | - |
| 1777944624 | 25.56° C | 39% | 1008.2 hPa | 0 mm | - | 121 W/m² | - |
| 1777944322 | 25.56° C | 44% | 1008.2 hPa | 0 mm | - | 57 W/m² | - |
| 1777944019 | 25.56° C | 40% | 1008.1 hPa | 0 mm | - | 69 W/m² | - |
| 1777943714 | 25.56° C | 40% | 1008.4 hPa | 0 mm | - | 48 W/m² | - |
| 1777943412 | 25.56° C | 44% | 1008.4 hPa | 0 mm | - | 48 W/m² | - |
| 1777943107 | 25.56° C | 41% | 1008.5 hPa | 0 mm | - | 48 W/m² | - |
| 1777942803 | 25.56° C | 41% | 1008.4 hPa | 0 mm | - | 50 W/m² | - |
| 1777942500 | 25.56° C | 41% | 1008.4 hPa | 0 mm | - | 50 W/m² | - |
| 1777942198 | 26.11° C | 41% | 1008.2 hPa | 0 mm | - | 51 W/m² | - |
| 1777941894 | 26.11° C | 42% | 1008.1 hPa | 0 mm | - | 51 W/m² | - |
| 1777941591 | 26.11° C | 41% | 1008.1 hPa | 0 mm | - | 73 W/m² | - |
| 1777941288 | 26.67° C | 41% | 1008.2 hPa | 0 mm | - | 63 W/m² | - |
| 1777940984 | 26.67° C | 41% | 1008.4 hPa | 0 mm | - | 68 W/m² | - |
| 1777940681 | 26.67° C | 40% | 1008.2 hPa | 0 mm | - | 93 W/m² | - |
* Rain latest hour (hover to see other rain measurements)
** Current wind speed in m/s (hover to see current wind gust speed)